Roseburg, OR

4:57 PM PST on February 27, 2015 (GMT -0800)
Hucrest | Change Station
CLOSE
Current Station
Personal Weather Station
Location: Roseburg, OR
Elevation: 425 ft
Nearby Weather Stations

Elev 425 ft 43.22 °N, 123.38 °W | Updated 1 minute ago

Overcast
Overcast
49.4 °F
Feels Like 49 °F
N
0.0
Wind Variable Wind from SW
Gusts 1.0 mph

Today
High -- | Low -- °F
--% Chance of Precip.
Yesterday
High -- | Low -- °F
Precip. -- in
6:53 AM 5:59 PM
Waxing Gibbous, 73% visible
Pressure 29.75 in
Visibility 10.0 miles
Clouds Few 3100 ft
Scattered Clouds 4400 ft
Overcast 5500 ft
Windchill 49 °F
Dew Point 43 °F
Humidity 78%
Rainfall 0.09 in
Snow Depth Not available.
UV 0 out of 12
Pollen .60 out of 12
Air Quality Not available.
Flu Activity Not available.
METAR KRBG 272353Z AUTO 21006KT 10SM -RA FEW031 SCT044 OVC055 10/05 A2975 RMK AO2 RAB21E30B53 SLP075 P0000 60010 T01000050 10111 20094 56013

More Conditions Fewer Conditions

Pressure 29.75 in
Visibility 10.0 miles
Clouds Few 3100 ft
Scattered Clouds 4400 ft
Overcast 5500 ft
Windchill 49 °F
Dew Point 43 °F
Humidity 78%
Rainfall 0.09 in
Snow Depth Not available.
UV 0 out of 12
Pollen .60 out of 12
Air Quality Not available.
Flu Activity Not available.
METAR KRBG 272353Z AUTO 21006KT 10SM -RA FEW031 SCT044 OVC055 10/05 A2975 RMK AO2 RAB21E30B53 SLP075 P0000 60010 T01000050 10111 20094 56013

More Conditions Fewer Conditions

10-Day Weather Forecast

Almanac

Astronomy

Feb. 27, 2015 Rise Set
Actual Time
Civil Twilight
Nautical Twilight
Astronomical Twilight
Moon
Length of Visible Light
Length of Day
Tomorrow will be .
, % of the Moon is Illuminated

Today's Extremes

State Highs State Lows

Community

WunderPhotos

Upload Photos

1,800,910 photos uploaded!

WunderBlogs® & News

Nearby

Air Quality

  Air Quality AQ Index Pollutant
Not available.

Snow Depth

Station Depth Elevation

Earthquake Activity

City Distance Mag. Time & Date
Minimum magnitude displayed is 2.5.

Coastal Water Temperatures

Place Temperature

Nearby Weather Stations